Terminal Aerodrome Forecast
Issued by NWS

Home | Current Version | Previous Version | Text Only | Print | Product List | Glossary Off
Versions: 1 2 3 4 5 6 7 8 9 10 11 12 13 14 15 16

000
FTUS43 KMPX 260859 AAA
TAFAXN
TAF AMD
KAXN 260859Z 2609/2706 32009KT P6SM BKN050
     FM261800 34013G22KT P6SM SCT050
     FM270000 01008KT P6SM SKC=

USA.gov is the U.S. government's official web portal to all federal, state and local government web resources and services.